createdAt,value
2023-02-27T00:00:42.314Z,1018.09
2023-02-27T00:01:42.257Z,1018.07
2023-02-27T00:02:42.261Z,1018.10
2023-02-27T00:03:42.206Z,1018.12
2023-02-27T00:05:03.130Z,1018.15
2023-02-27T00:05:42.099Z,1018.13
2023-02-27T00:06:42.066Z,1018.15
2023-02-27T00:07:42.013Z,1018.15
2023-02-27T00:08:42.036Z,1018.15
2023-02-27T00:09:41.942Z,1018.17
2023-02-27T00:11:02.900Z,1018.14
2023-02-27T00:11:41.845Z,1018.13
2023-02-27T00:12:41.803Z,1018.14
2023-02-27T00:13:41.773Z,1018.11
2023-02-27T00:14:41.723Z,1018.11
2023-02-27T00:15:41.803Z,1018.11
2023-02-27T00:17:02.638Z,1018.12
2023-02-27T00:17:41.600Z,1018.10
2023-02-27T00:18:41.565Z,1018.15
2023-02-27T00:19:41.517Z,1018.15
2023-02-27T00:20:41.490Z,1018.11
2023-02-27T00:21:41.456Z,1018.12
2023-02-27T00:23:02.396Z,1018.10
2023-02-27T00:23:41.360Z,1018.16
2023-02-27T00:24:41.324Z,1018.16
2023-02-27T00:25:41.284Z,1018.17
2023-02-27T00:26:41.236Z,1018.16
2023-02-27T00:27:41.207Z,1018.16
2023-02-27T00:29:02.143Z,1018.15
2023-02-27T00:29:41.114Z,1018.14
2023-02-27T00:30:41.103Z,1018.16
2023-02-27T00:31:41.101Z,1018.17
2023-02-27T00:32:40.993Z,1018.17
2023-02-27T00:33:40.956Z,1018.18
2023-02-27T00:35:01.911Z,1018.20
2023-02-27T00:35:40.875Z,1018.17
2023-02-27T00:36:40.827Z,1018.19
2023-02-27T00:37:40.830Z,1018.24
2023-02-27T00:38:40.743Z,1018.21
2023-02-27T00:39:40.714Z,1018.22
2023-02-27T00:41:01.657Z,1018.23
2023-02-27T00:41:40.627Z,1018.23
2023-02-27T00:42:40.588Z,1018.22
2023-02-27T00:43:40.550Z,1018.22
2023-02-27T00:44:40.507Z,1018.23
2023-02-27T00:45:40.457Z,1018.21
2023-02-27T00:47:01.407Z,1018.22
2023-02-27T00:47:40.386Z,1018.19
2023-02-27T00:48:40.342Z,1018.22
2023-02-27T00:49:40.296Z,1018.22
2023-02-27T00:50:40.262Z,1018.19
2023-02-27T00:51:40.209Z,1018.19
2023-02-27T00:53:01.186Z,1018.17
2023-02-27T00:53:40.132Z,1018.21
2023-02-27T00:54:40.087Z,1018.19
2023-02-27T00:55:40.050Z,1018.22
2023-02-27T00:56:40.005Z,1018.20
2023-02-27T00:57:40.001Z,1018.21
2023-02-27T00:59:00.930Z,1018.20
2023-02-27T00:59:39.897Z,1018.18
2023-02-27T01:00:39.877Z,1018.21
2023-02-27T01:01:39.810Z,1018.16
2023-02-27T01:02:39.808Z,1018.19
2023-02-27T01:03:39.734Z,1018.18
2023-02-27T01:05:00.769Z,1018.17
2023-02-27T01:05:39.642Z,1018.14
2023-02-27T01:06:39.609Z,1018.14
2023-02-27T01:07:39.560Z,1018.14
2023-02-27T01:08:39.524Z,1018.18
2023-02-27T01:09:39.481Z,1018.19
2023-02-27T01:11:00.428Z,1018.18
2023-02-27T01:11:39.400Z,1018.17
2023-02-27T01:12:39.363Z,1018.18
2023-02-27T01:13:39.319Z,1018.15
2023-02-27T01:14:39.271Z,1018.12
2023-02-27T01:15:39.296Z,1018.14
2023-02-27T01:17:00.190Z,1018.11
2023-02-27T01:17:39.157Z,1018.17
2023-02-27T01:18:39.118Z,1018.13
2023-02-27T01:19:39.071Z,1018.16
2023-02-27T01:20:39.044Z,1018.14
2023-02-27T01:21:39.000Z,1018.14
2023-02-27T01:22:59.943Z,1018.17
2023-02-27T01:23:38.909Z,1018.14
2023-02-27T01:24:38.872Z,1018.16
2023-02-27T01:25:38.836Z,1018.17
2023-02-27T01:26:38.786Z,1018.18
2023-02-27T01:27:38.764Z,1018.19
2023-02-27T01:28:59.700Z,1018.13
2023-02-27T01:29:38.666Z,1018.13
2023-02-27T01:30:38.676Z,1018.11
2023-02-27T01:31:38.631Z,1018.13
2023-02-27T01:32:38.739Z,1018.12
2023-02-27T01:33:38.500Z,1018.06
2023-02-27T01:34:59.454Z,1018.11
2023-02-27T01:35:38.423Z,1018.11
2023-02-27T01:36:38.383Z,1018.09
2023-02-27T01:37:38.338Z,1018.09
2023-02-27T01:38:38.297Z,1018.08
2023-02-27T01:39:38.256Z,1018.05
2023-02-27T01:40:59.216Z,1018.06
2023-02-27T01:41:38.183Z,1018.04
2023-02-27T01:42:38.134Z,1018.05
2023-02-27T01:43:38.090Z,1018.01
2023-02-27T01:44:38.048Z,1018.01
2023-02-27T01:45:38.066Z,1018.01
2023-02-27T01:46:58.959Z,1018.01
2023-02-27T01:47:37.938Z,1017.97
2023-02-27T01:48:37.925Z,1017.98
2023-02-27T01:49:37.848Z,1018.00
2023-02-27T01:50:37.804Z,1017.96
2023-02-27T01:51:37.760Z,1017.98
2023-02-27T01:52:58.728Z,1017.94
2023-02-27T01:53:37.691Z,1017.99
2023-02-27T01:54:37.647Z,1017.99
2023-02-27T01:55:37.596Z,1018.00
2023-02-27T01:56:37.558Z,1017.98
2023-02-27T01:57:37.523Z,1018.01
2023-02-27T01:58:58.470Z,1018.00
2023-02-27T01:59:37.437Z,1018.00
2023-02-27T02:00:37.400Z,1018.02
2023-02-27T02:01:37.385Z,1017.99
2023-02-27T02:02:37.335Z,1018.01
2023-02-27T02:03:37.274Z,1018.01
2023-02-27T02:04:58.232Z,1018.01
2023-02-27T02:05:37.198Z,1017.98
2023-02-27T02:06:37.145Z,1017.99
2023-02-27T02:07:37.108Z,1017.99
2023-02-27T02:08:37.065Z,1018.03
2023-02-27T02:09:37.029Z,1017.98
2023-02-27T02:10:57.981Z,1018.01
2023-02-27T02:11:36.950Z,1017.99
2023-02-27T02:12:36.914Z,1018.02
2023-02-27T02:13:36.868Z,1017.95
2023-02-27T02:14:36.827Z,1018.01
2023-02-27T02:15:36.793Z,1017.97
2023-02-27T02:16:57.749Z,1018.00
2023-02-27T02:17:36.696Z,1018.02
2023-02-27T02:18:36.657Z,1018.01
2023-02-27T02:19:36.616Z,1017.99
2023-02-27T02:20:36.570Z,1017.99
2023-02-27T02:21:36.529Z,1017.99
2023-02-27T02:22:57.483Z,1018.05
2023-02-27T02:23:36.457Z,1018.01
2023-02-27T02:24:36.416Z,1018.03
2023-02-27T02:25:36.378Z,1017.99
2023-02-27T02:26:36.327Z,1018.02
2023-02-27T02:27:36.298Z,1018.01
2023-02-27T02:28:57.244Z,1017.98
2023-02-27T02:29:36.208Z,1018.00
2023-02-27T02:30:36.223Z,1017.99
2023-02-27T02:31:36.212Z,1018.02
2023-02-27T02:32:36.084Z,1018.01
2023-02-27T02:33:36.043Z,1018.01
2023-02-27T02:34:56.999Z,1017.99
2023-02-27T02:35:35.955Z,1018.05
2023-02-27T02:36:35.921Z,1018.02
2023-02-27T02:37:35.870Z,1018.03
2023-02-27T02:38:35.838Z,1018.01
2023-02-27T02:39:35.801Z,1018.02
2023-02-27T02:40:56.745Z,1018.03
2023-02-27T02:41:35.712Z,1018.07
2023-02-27T02:42:35.666Z,1018.04
2023-02-27T02:43:35.639Z,1018.09
2023-02-27T02:44:35.596Z,1018.13
2023-02-27T02:45:35.549Z,1018.12
2023-02-27T02:46:56.500Z,1018.12
2023-02-27T02:47:35.468Z,1018.11
2023-02-27T02:48:35.422Z,1018.10
2023-02-27T02:49:35.403Z,1018.12
2023-02-27T02:50:35.406Z,1018.10
2023-02-27T02:51:35.303Z,1018.09
2023-02-27T02:52:59.038Z,1018.09
2023-02-27T02:53:37.286Z,1018.06
2023-02-27T02:54:35.202Z,1018.05
2023-02-27T02:55:35.141Z,1018.08
2023-02-27T02:56:35.097Z,1018.07
2023-02-27T02:57:35.065Z,1018.09
2023-02-27T02:58:56.013Z,1018.09
2023-02-27T02:59:34.977Z,1018.10
2023-02-27T03:00:35.050Z,1018.12
2023-02-27T03:01:34.897Z,1018.12
2023-02-27T03:02:34.847Z,1018.13
2023-02-27T03:03:34.817Z,1018.10
2023-02-27T03:04:55.767Z,1018.13
2023-02-27T03:05:34.728Z,1018.10
2023-02-27T03:06:34.690Z,1018.11
2023-02-27T03:07:34.716Z,1018.12
2023-02-27T03:08:34.608Z,1018.18
2023-02-27T03:09:34.569Z,1018.12
2023-02-27T03:10:55.522Z,1018.15
2023-02-27T03:11:34.501Z,1018.14
2023-02-27T03:12:34.444Z,1018.17
2023-02-27T03:13:34.400Z,1018.14
2023-02-27T03:14:34.355Z,1018.14
2023-02-27T03:15:34.334Z,1018.17
2023-02-27T03:16:55.278Z,1018.21
2023-02-27T03:17:34.244Z,1018.19
2023-02-27T03:18:34.199Z,1018.19
2023-02-27T03:19:34.164Z,1018.19
2023-02-27T03:20:34.112Z,1018.20
2023-02-27T03:21:34.068Z,1018.20
2023-02-27T03:22:55.023Z,1018.20
2023-02-27T03:23:33.989Z,1018.26
2023-02-27T03:24:33.940Z,1018.24
2023-02-27T03:25:33.907Z,1018.24
2023-02-27T03:26:33.862Z,1018.27
2023-02-27T03:27:33.820Z,1018.28
2023-02-27T03:28:54.772Z,1018.28
2023-02-27T03:29:33.737Z,1018.31
2023-02-27T03:30:33.707Z,1018.29
2023-02-27T03:31:33.764Z,1018.30
2023-02-27T03:32:33.656Z,1018.28
2023-02-27T03:33:33.579Z,1018.27
2023-02-27T03:34:54.524Z,1018.36
2023-02-27T03:35:33.493Z,1018.35
2023-02-27T03:36:33.457Z,1018.33
2023-02-27T03:37:33.404Z,1018.33
2023-02-27T03:38:33.358Z,1018.35
2023-02-27T03:39:33.323Z,1018.38
2023-02-27T03:40:54.274Z,1018.36
2023-02-27T03:41:33.249Z,1018.32
2023-02-27T03:42:33.199Z,1018.34
2023-02-27T03:43:33.155Z,1018.36
2023-02-27T03:44:33.123Z,1018.36
2023-02-27T03:45:33.104Z,1018.35
2023-02-27T03:46:54.023Z,1018.37
2023-02-27T03:47:32.997Z,1018.38
2023-02-27T03:48:32.952Z,1018.38
2023-02-27T03:49:32.956Z,1018.41
2023-02-27T03:50:32.866Z,1018.37
2023-02-27T03:51:32.831Z,1018.36
2023-02-27T03:52:53.783Z,1018.42
2023-02-27T03:53:32.744Z,1018.40
2023-02-27T03:54:32.699Z,1018.39
2023-02-27T03:55:32.669Z,1018.42
2023-02-27T03:56:32.625Z,1018.41
2023-02-27T03:57:32.591Z,1018.42
2023-02-27T03:58:53.532Z,1018.40
2023-02-27T03:59:32.504Z,1018.44
2023-02-27T04:00:32.461Z,1018.45
2023-02-27T04:01:32.424Z,1018.46
2023-02-27T04:02:32.389Z,1018.47
2023-02-27T04:03:32.334Z,1018.50
2023-02-27T04:04:53.285Z,1018.52
2023-02-27T04:05:32.265Z,1018.49
2023-02-27T04:06:32.201Z,1018.46
2023-02-27T04:07:32.186Z,1018.48
2023-02-27T04:08:32.116Z,1018.50
2023-02-27T04:09:32.078Z,1018.48
2023-02-27T04:10:53.034Z,1018.50
2023-02-27T04:11:31.996Z,1018.48
2023-02-27T04:12:31.957Z,1018.56
2023-02-27T04:13:31.928Z,1018.54
2023-02-27T04:14:31.870Z,1018.56
2023-02-27T04:15:31.833Z,1018.54
2023-02-27T04:16:52.785Z,1018.58
2023-02-27T04:17:31.755Z,1018.57
2023-02-27T04:18:31.703Z,1018.53
2023-02-27T04:19:31.678Z,1018.56
2023-02-27T04:20:31.626Z,1018.58
2023-02-27T04:21:31.589Z,1018.56
2023-02-27T04:22:52.547Z,1018.56
2023-02-27T04:23:31.500Z,1018.55
2023-02-27T04:24:31.461Z,1018.56
2023-02-27T04:25:31.420Z,1018.56
2023-02-27T04:26:31.374Z,1018.57
2023-02-27T04:27:31.337Z,1018.56
2023-02-27T04:28:52.297Z,1018.53
2023-02-27T04:29:31.263Z,1018.54
2023-02-27T04:30:31.214Z,1018.50
2023-02-27T04:31:31.553Z,1018.51
2023-02-27T04:32:31.213Z,1018.54
2023-02-27T04:33:31.098Z,1018.51
2023-02-27T04:34:52.053Z,1018.51
2023-02-27T04:35:31.011Z,1018.51
2023-02-27T04:36:30.969Z,1018.54
2023-02-27T04:37:30.930Z,1018.55
2023-02-27T04:38:30.886Z,1018.57
2023-02-27T04:39:30.845Z,1018.56
2023-02-27T04:40:51.798Z,1018.58
2023-02-27T04:41:30.768Z,1018.58
2023-02-27T04:42:30.720Z,1018.58
2023-02-27T04:43:30.682Z,1018.57
2023-02-27T04:44:30.636Z,1018.59
2023-02-27T04:45:30.657Z,1018.56
2023-02-27T04:46:51.555Z,1018.57
2023-02-27T04:47:30.526Z,1018.59
2023-02-27T04:48:30.479Z,1018.61
2023-02-27T04:49:30.437Z,1018.57
2023-02-27T04:50:30.392Z,1018.62
2023-02-27T04:51:30.383Z,1018.59
2023-02-27T04:52:51.303Z,1018.62
2023-02-27T04:53:30.272Z,1018.66
2023-02-27T04:54:30.223Z,1018.63
2023-02-27T04:55:30.196Z,1018.65
2023-02-27T04:56:30.138Z,1018.66
2023-02-27T04:57:30.099Z,1018.65
2023-02-27T04:58:51.051Z,1018.66
2023-02-27T04:59:30.021Z,1018.66
2023-02-27T05:00:29.980Z,1018.71
2023-02-27T05:01:30.318Z,1018.69
2023-02-27T05:02:29.965Z,1018.75
2023-02-27T05:03:29.852Z,1018.74
2023-02-27T05:04:50.800Z,1018.72
2023-02-27T05:05:29.769Z,1018.78
2023-02-27T05:06:29.737Z,1018.74
2023-02-27T05:07:29.684Z,1018.74
2023-02-27T05:08:29.643Z,1018.78
2023-02-27T05:09:29.598Z,1018.75
2023-02-27T05:10:50.575Z,1018.75
2023-02-27T05:11:29.770Z,1018.79
2023-02-27T05:12:29.474Z,1018.76
2023-02-27T05:13:29.434Z,1018.76
2023-02-27T05:14:29.389Z,1018.76
2023-02-27T05:15:29.400Z,1018.77
2023-02-27T05:16:50.305Z,1018.75
2023-02-27T05:17:29.271Z,1018.79
2023-02-27T05:18:29.229Z,1018.76
2023-02-27T05:19:29.185Z,1018.83
2023-02-27T05:20:29.890Z,1018.80
2023-02-27T05:21:29.591Z,1018.81
2023-02-27T05:22:50.055Z,1018.79
2023-02-27T05:23:29.046Z,1018.83
2023-02-27T05:24:29.038Z,1018.83
2023-02-27T05:25:28.934Z,1018.82
2023-02-27T05:26:28.887Z,1018.81
2023-02-27T05:27:28.854Z,1018.78
2023-02-27T05:28:49.805Z,1018.82
2023-02-27T05:29:28.769Z,1018.84
2023-02-27T05:30:28.729Z,1018.83
2023-02-27T05:31:29.023Z,1018.84
2023-02-27T05:32:28.654Z,1018.84
2023-02-27T05:33:28.601Z,1018.81
2023-02-27T05:34:49.555Z,1018.89
2023-02-27T05:35:29.380Z,1018.88
2023-02-27T05:36:28.471Z,1018.87
2023-02-27T05:37:28.431Z,1018.84
2023-02-27T05:38:28.387Z,1018.86
2023-02-27T05:39:28.361Z,1018.92
2023-02-27T05:40:49.299Z,1018.89
2023-02-27T05:41:28.539Z,1018.88
2023-02-27T05:42:28.226Z,1018.90
2023-02-27T05:43:28.186Z,1018.93
2023-02-27T05:44:28.139Z,1018.92
2023-02-27T05:45:28.098Z,1018.93
2023-02-27T05:46:49.050Z,1018.93
2023-02-27T05:47:28.026Z,1018.97
2023-02-27T05:48:27.974Z,1018.94
2023-02-27T05:49:27.933Z,1018.93
2023-02-27T05:50:27.891Z,1018.93
2023-02-27T05:51:28.255Z,1018.96
2023-02-27T05:52:48.799Z,1018.95
2023-02-27T05:53:27.765Z,1018.92
2023-02-27T05:54:27.722Z,1018.95
2023-02-27T05:55:27.690Z,1018.97
2023-02-27T05:56:28.012Z,1018.97
2023-02-27T05:57:27.600Z,1018.96
2023-02-27T05:58:48.550Z,1018.97
2023-02-27T05:59:27.526Z,1018.97
2023-02-27T06:00:27.471Z,1018.97
2023-02-27T06:01:27.433Z,1018.99
2023-02-27T06:02:27.429Z,1019.00
2023-02-27T06:03:27.385Z,1018.99
2023-02-27T06:04:48.301Z,1019.03
2023-02-27T06:05:27.270Z,1018.97
2023-02-27T06:06:27.511Z,1018.97
2023-02-27T06:07:27.181Z,1019.02
2023-02-27T06:08:27.150Z,1019.05
2023-02-27T06:09:27.100Z,1019.06
2023-02-27T06:10:48.050Z,1019.05
2023-02-27T06:11:27.020Z,1019.07
2023-02-27T06:12:26.977Z,1019.08
2023-02-27T06:13:26.952Z,1019.09
2023-02-27T06:14:26.896Z,1019.08
2023-02-27T06:15:26.851Z,1019.13
2023-02-27T06:16:47.838Z,1019.12
2023-02-27T06:17:26.767Z,1019.12
2023-02-27T06:18:26.740Z,1019.14
2023-02-27T06:19:26.681Z,1019.16
2023-02-27T06:20:26.651Z,1019.15
2023-02-27T06:21:26.596Z,1019.16
2023-02-27T06:22:47.552Z,1019.15
2023-02-27T06:23:26.527Z,1019.15
2023-02-27T06:24:26.479Z,1019.13
2023-02-27T06:25:26.437Z,1019.13
2023-02-27T06:26:26.731Z,1019.16
2023-02-27T06:27:26.369Z,1019.17
2023-02-27T06:28:47.300Z,1019.18
2023-02-27T06:29:26.270Z,1019.17
2023-02-27T06:30:26.222Z,1019.21
2023-02-27T06:31:26.180Z,1019.21
2023-02-27T06:32:26.134Z,1019.20
2023-02-27T06:33:26.145Z,1019.27
2023-02-27T06:34:47.041Z,1019.27
2023-02-27T06:35:26.027Z,1019.30
2023-02-27T06:36:26.301Z,1019.26
2023-02-27T06:37:25.928Z,1019.26
2023-02-27T06:38:25.899Z,1019.26
2023-02-27T06:39:25.851Z,1019.26
2023-02-27T06:40:46.796Z,1019.27
2023-02-27T06:41:25.767Z,1019.25
2023-02-27T06:42:25.714Z,1019.28
2023-02-27T06:43:25.676Z,1019.28
2023-02-27T06:44:25.641Z,1019.21
2023-02-27T06:45:25.600Z,1019.23
2023-02-27T06:46:46.542Z,1019.24
2023-02-27T06:47:25.518Z,1019.23
2023-02-27T06:48:25.472Z,1019.24
2023-02-27T06:49:25.446Z,1019.26
2023-02-27T06:50:25.376Z,1019.25
2023-02-27T06:51:25.334Z,1019.28
2023-02-27T06:52:46.292Z,1019.27
2023-02-27T06:53:25.258Z,1019.27
2023-02-27T06:54:25.243Z,1019.26
2023-02-27T06:55:25.178Z,1019.30
2023-02-27T06:56:25.315Z,1019.27
2023-02-27T06:57:25.089Z,1019.31
2023-02-27T06:58:46.040Z,1019.34
2023-02-27T06:59:25.035Z,1019.35
2023-02-27T07:00:25.030Z,1019.37
2023-02-27T07:01:24.957Z,1019.38
2023-02-27T07:02:24.891Z,1019.42
2023-02-27T07:03:24.839Z,1019.41
2023-02-27T07:04:45.872Z,1019.48
2023-02-27T07:05:24.763Z,1019.47
2023-02-27T07:07:32.250Z,1019.49
2023-02-27T07:07:35.454Z,1019.50
2023-02-27T07:08:24.642Z,1019.49
2023-02-27T07:09:24.584Z,1019.55
2023-02-27T07:10:45.550Z,1019.52
2023-02-27T07:11:24.505Z,1019.51
2023-02-27T07:12:24.462Z,1019.52
2023-02-27T07:13:24.431Z,1019.55
2023-02-27T07:14:24.394Z,1019.54
2023-02-27T07:15:24.351Z,1019.55
2023-02-27T07:16:45.355Z,1019.55
2023-02-27T07:17:24.270Z,1019.56
2023-02-27T07:18:24.213Z,1019.56
2023-02-27T07:19:24.181Z,1019.59
2023-02-27T07:20:24.143Z,1019.62
2023-02-27T07:21:24.091Z,1019.65
2023-02-27T07:22:45.080Z,1019.62
2023-02-27T07:23:24.042Z,1019.62
2023-02-27T07:24:23.968Z,1019.62
2023-02-27T07:25:23.926Z,1019.67
2023-02-27T07:26:23.886Z,1019.66
2023-02-27T07:27:23.840Z,1019.72
2023-02-27T07:28:44.869Z,1019.72
2023-02-27T07:29:23.768Z,1019.73
2023-02-27T07:30:23.727Z,1019.73
2023-02-27T07:31:23.833Z,1019.71
2023-02-27T07:32:23.709Z,1019.75
2023-02-27T07:33:23.589Z,1019.76
2023-02-27T07:34:44.563Z,1019.78
2023-02-27T07:35:23.522Z,1019.80
2023-02-27T07:36:23.475Z,1019.83
2023-02-27T07:37:23.473Z,1019.86
2023-02-27T07:38:23.390Z,1019.90
2023-02-27T07:39:23.352Z,1019.87
2023-02-27T07:40:44.298Z,1019.89
2023-02-27T07:41:30.245Z,1019.88
2023-02-27T07:42:23.216Z,1019.91
2023-02-27T07:43:23.221Z,1019.92
2023-02-27T07:44:23.141Z,1019.93
2023-02-27T07:45:23.115Z,1019.92
2023-02-27T07:46:44.076Z,1019.89
2023-02-27T07:47:23.029Z,1019.93
2023-02-27T07:48:22.985Z,1019.91
2023-02-27T07:49:22.939Z,1019.89
2023-02-27T07:50:22.894Z,1019.94
2023-02-27T07:51:22.863Z,1020.00
2023-02-27T07:52:43.815Z,1019.97
2023-02-27T07:53:22.799Z,1020.00
2023-02-27T07:54:22.742Z,1020.02
2023-02-27T07:55:22.691Z,1020.02
2023-02-27T07:56:22.648Z,1019.99
2023-02-27T07:57:22.605Z,1020.00
2023-02-27T07:58:43.561Z,1020.04
2023-02-27T07:59:22.528Z,1020.03
2023-02-27T08:00:22.492Z,1020.03
2023-02-27T08:01:22.442Z,1020.07
2023-02-27T08:02:22.461Z,1020.11
2023-02-27T08:03:22.358Z,1020.09
2023-02-27T08:04:43.423Z,1020.10
2023-02-27T08:05:22.296Z,1020.13
2023-02-27T08:06:22.239Z,1020.14
2023-02-27T08:07:22.190Z,1020.14
2023-02-27T08:08:22.152Z,1020.16
2023-02-27T08:09:22.124Z,1020.15
2023-02-27T08:10:43.063Z,1020.18
2023-02-27T08:11:22.030Z,1020.14
2023-02-27T08:12:21.991Z,1020.14
2023-02-27T08:13:35.972Z,1020.14
2023-02-27T08:14:21.908Z,1020.14
2023-02-27T08:15:21.878Z,1020.15
2023-02-27T08:16:42.833Z,1020.16
2023-02-27T08:17:21.785Z,1020.17
2023-02-27T08:18:21.755Z,1020.10
2023-02-27T08:19:21.702Z,1020.17
2023-02-27T08:20:21.665Z,1020.11
2023-02-27T08:21:21.631Z,1020.12
2023-02-27T08:22:42.581Z,1020.06
2023-02-27T08:23:21.556Z,1020.12
2023-02-27T08:24:21.494Z,1020.09
2023-02-27T08:25:21.466Z,1020.11
2023-02-27T08:26:21.451Z,1020.09
2023-02-27T08:27:21.380Z,1020.08
2023-02-27T08:28:42.336Z,1020.09
2023-02-27T08:29:21.295Z,1020.13
2023-02-27T08:30:21.259Z,1020.07
2023-02-27T08:31:21.262Z,1020.13
2023-02-27T08:32:21.216Z,1020.14
2023-02-27T08:33:21.141Z,1020.15
2023-02-27T08:34:42.077Z,1020.15
2023-02-27T08:35:21.049Z,1020.17
2023-02-27T08:36:21.012Z,1020.15
2023-02-27T08:37:20.964Z,1020.18
2023-02-27T08:38:20.935Z,1020.18
2023-02-27T08:39:20.906Z,1020.19
2023-02-27T08:40:41.840Z,1020.15
2023-02-27T08:41:20.822Z,1020.18
2023-02-27T08:42:20.771Z,1020.21
2023-02-27T08:43:20.731Z,1020.22
2023-02-27T08:44:20.764Z,1020.20
2023-02-27T08:45:20.652Z,1020.23
2023-02-27T08:46:41.617Z,1020.26
2023-02-27T08:47:20.588Z,1020.21
2023-02-27T08:48:20.544Z,1020.19
2023-02-27T08:49:21.646Z,1020.26
2023-02-27T08:50:20.443Z,1020.27
2023-02-27T08:51:20.412Z,1020.27
2023-02-27T08:52:41.393Z,1020.25
2023-02-27T08:53:20.319Z,1020.25
2023-02-27T08:54:20.281Z,1020.21
2023-02-27T08:55:20.241Z,1020.20
2023-02-27T08:56:20.217Z,1020.26
2023-02-27T08:57:20.186Z,1020.26
2023-02-27T08:58:41.128Z,1020.22
2023-02-27T08:59:20.100Z,1020.23
2023-02-27T09:00:20.055Z,1020.29
2023-02-27T09:01:20.065Z,1020.28
2023-02-27T09:02:19.998Z,1020.27
2023-02-27T09:03:19.913Z,1020.23
2023-02-27T09:04:40.875Z,1020.23
2023-02-27T09:05:19.830Z,1020.25
2023-02-27T09:06:19.797Z,1020.25
2023-02-27T09:07:19.762Z,1020.21
2023-02-27T09:08:19.706Z,1020.26
2023-02-27T09:09:19.666Z,1020.23
2023-02-27T09:10:40.622Z,1020.24
2023-02-27T09:11:19.596Z,1020.24
2023-02-27T09:12:19.555Z,1020.19
2023-02-27T09:13:19.520Z,1020.21
2023-02-27T09:14:19.474Z,1020.21
2023-02-27T09:15:19.430Z,1020.20
2023-02-27T09:16:40.420Z,1020.17
2023-02-27T09:17:19.361Z,1020.21
2023-02-27T09:18:19.322Z,1020.26
2023-02-27T09:19:19.318Z,1020.17
2023-02-27T09:20:19.230Z,1020.23
2023-02-27T09:21:19.198Z,1020.22
2023-02-27T09:22:40.150Z,1020.20
2023-02-27T09:23:19.141Z,1020.25
2023-02-27T09:24:20.759Z,1020.25
2023-02-27T09:25:19.070Z,1020.28
2023-02-27T09:26:18.987Z,1020.28
2023-02-27T09:27:18.967Z,1020.25
2023-02-27T09:28:40.000Z,1020.30
2023-02-27T09:29:18.877Z,1020.26
2023-02-27T09:30:18.870Z,1020.23
2023-02-27T09:31:18.812Z,1020.27
2023-02-27T09:32:18.805Z,1020.27
2023-02-27T09:33:18.712Z,1020.21
2023-02-27T09:34:39.666Z,1020.20
2023-02-27T09:35:18.632Z,1020.23
2023-02-27T09:36:18.586Z,1020.26
2023-02-27T09:37:18.562Z,1020.26
2023-02-27T09:38:18.511Z,1020.28
2023-02-27T09:39:18.463Z,1020.34
2023-02-27T09:40:39.511Z,1020.31
2023-02-27T09:41:18.393Z,1020.34
2023-02-27T09:42:18.343Z,1020.31
2023-02-27T09:43:18.331Z,1020.32
2023-02-27T09:44:18.274Z,1020.33
2023-02-27T09:45:18.246Z,1020.33
2023-02-27T09:46:39.183Z,1020.29
2023-02-27T09:47:18.198Z,1020.33
2023-02-27T09:48:18.168Z,1020.31
2023-02-27T09:49:18.064Z,1020.32
2023-02-27T09:50:18.048Z,1020.33
2023-02-27T09:51:17.990Z,1020.37
2023-02-27T09:52:38.945Z,1020.42
2023-02-27T09:53:17.916Z,1020.36
2023-02-27T09:54:17.861Z,1020.37
2023-02-27T09:55:17.828Z,1020.32
2023-02-27T09:56:17.828Z,1020.32
2023-02-27T09:57:17.749Z,1020.35
2023-02-27T09:58:38.705Z,1020.38
2023-02-27T09:59:17.665Z,1020.34
2023-02-27T10:00:17.627Z,1020.38
2023-02-27T10:01:17.596Z,1020.38
2023-02-27T10:02:17.596Z,1020.37
2023-02-27T10:03:17.575Z,1020.33
2023-02-27T10:04:38.460Z,1020.37
2023-02-27T10:05:17.422Z,1020.37
2023-02-27T10:06:17.390Z,1020.41
2023-02-27T10:07:17.369Z,1020.39
2023-02-27T10:08:17.303Z,1020.44
2023-02-27T10:09:17.269Z,1020.40
2023-02-27T10:10:38.223Z,1020.41
2023-02-27T10:11:17.222Z,1020.49
2023-02-27T10:12:17.180Z,1020.51
2023-02-27T10:13:17.106Z,1020.49
2023-02-27T10:14:17.103Z,1020.51
2023-02-27T10:15:17.031Z,1020.47
2023-02-27T10:16:38.040Z,1020.48
2023-02-27T10:17:16.956Z,1020.47
2023-02-27T10:18:26.853Z,1020.46
2023-02-27T10:19:16.898Z,1020.51
2023-02-27T10:20:16.830Z,1020.54
2023-02-27T10:21:16.811Z,1020.53
2023-02-27T10:22:37.753Z,1020.53
2023-02-27T10:23:16.739Z,1020.52
2023-02-27T10:24:16.692Z,1020.50
2023-02-27T10:25:30.146Z,1020.54
2023-02-27T10:26:16.604Z,1020.54
2023-02-27T10:27:16.578Z,1020.47
2023-02-27T10:28:37.522Z,1020.51
2023-02-27T10:29:16.493Z,1020.54
2023-02-27T10:30:23.528Z,1020.52
2023-02-27T10:31:16.500Z,1020.55
2023-02-27T10:32:16.458Z,1020.55
2023-02-27T10:33:16.357Z,1020.55
2023-02-27T10:34:37.299Z,1020.52
2023-02-27T10:35:16.269Z,1020.54
2023-02-27T10:36:31.013Z,1020.55
2023-02-27T10:37:16.200Z,1020.55
2023-02-27T10:38:16.163Z,1020.57
2023-02-27T10:39:16.130Z,1020.55
2023-02-27T10:40:37.082Z,1020.54
2023-02-27T10:41:16.043Z,1020.54
2023-02-27T10:42:16.011Z,1020.54
2023-02-27T10:43:15.983Z,1020.54
2023-02-27T10:44:15.944Z,1020.58
2023-02-27T10:45:15.923Z,1020.60
2023-02-27T10:46:36.902Z,1020.57
2023-02-27T10:47:15.849Z,1020.55
2023-02-27T10:48:15.787Z,1020.56
2023-02-27T10:49:18.253Z,1020.56
2023-02-27T10:50:15.723Z,1020.61
2023-02-27T10:51:15.710Z,1020.58
2023-02-27T10:52:36.645Z,1020.58
2023-02-27T10:53:15.607Z,1020.60
2023-02-27T10:54:15.582Z,1020.58
2023-02-27T10:55:15.535Z,1020.55
2023-02-27T10:56:15.514Z,1020.55
2023-02-27T10:57:15.470Z,1020.57
2023-02-27T10:58:36.451Z,1020.53
2023-02-27T10:59:15.398Z,1020.56
2023-02-27T11:00:15.456Z,1020.51
2023-02-27T11:01:15.382Z,1020.53
2023-02-27T11:02:15.285Z,1020.50
2023-02-27T11:03:15.249Z,1020.51
2023-02-27T11:04:36.273Z,1020.51
2023-02-27T11:05:15.210Z,1020.54
2023-02-27T11:06:15.153Z,1020.50
2023-02-27T11:07:15.174Z,1020.53
2023-02-27T11:08:15.075Z,1020.49
2023-02-27T11:09:15.038Z,1020.46
2023-02-27T11:10:36.037Z,1020.44
2023-02-27T11:11:14.984Z,1020.43
2023-02-27T11:12:14.930Z,1020.45
2023-02-27T11:13:14.900Z,1020.46
2023-02-27T11:14:14.863Z,1020.47
2023-02-27T11:15:14.823Z,1020.46
2023-02-27T11:16:35.818Z,1020.41
2023-02-27T11:17:14.759Z,1020.42
2023-02-27T11:18:14.726Z,1020.37
2023-02-27T11:19:14.685Z,1020.38
2023-02-27T11:20:14.657Z,1020.41
2023-02-27T11:21:14.656Z,1020.35
2023-02-27T11:22:35.586Z,1020.36
2023-02-27T11:23:14.553Z,1020.35
2023-02-27T11:24:14.526Z,1020.32
2023-02-27T11:25:14.485Z,1020.29
2023-02-27T11:26:14.449Z,1020.30
2023-02-27T11:27:14.428Z,1020.32
2023-02-27T11:28:35.417Z,1020.31
2023-02-27T11:29:14.357Z,1020.30
2023-02-27T11:30:16.278Z,1020.26
2023-02-27T11:31:14.315Z,1020.28
2023-02-27T11:32:14.412Z,1020.25
2023-02-27T11:33:14.230Z,1020.21
2023-02-27T11:34:35.183Z,1020.19
2023-02-27T11:35:14.148Z,1020.20
2023-02-27T11:36:16.208Z,1020.16
2023-02-27T11:37:14.091Z,1020.17
2023-02-27T11:38:14.045Z,1020.14
2023-02-27T11:39:14.021Z,1020.08
2023-02-27T11:40:34.983Z,1020.10
2023-02-27T11:41:13.946Z,1020.03
2023-02-27T11:42:15.393Z,1020.06
2023-02-27T11:43:13.878Z,1020.07
2023-02-27T11:44:13.842Z,1020.02
2023-02-27T11:45:13.816Z,1020.01
2023-02-27T11:46:47.853Z,1019.98
2023-02-27T11:47:13.819Z,1019.99
2023-02-27T11:48:13.715Z,1020.03
2023-02-27T11:49:13.676Z,1020.02
2023-02-27T11:50:13.645Z,1019.94
2023-02-27T11:51:13.613Z,1019.89
2023-02-27T11:52:34.575Z,1019.90
2023-02-27T11:53:13.537Z,1019.88
2023-02-27T11:54:13.509Z,1019.89
2023-02-27T11:55:13.476Z,1019.89
2023-02-27T11:56:13.445Z,1019.81
2023-02-27T11:57:13.402Z,1019.80
2023-02-27T11:58:34.361Z,1019.76
2023-02-27T11:59:13.352Z,1019.73
2023-02-27T12:00:13.312Z,1019.78
2023-02-27T12:01:13.259Z,1019.74
2023-02-27T12:02:13.225Z,1019.70
2023-02-27T12:03:13.282Z,1019.70
2023-02-27T12:04:34.154Z,1019.68
2023-02-27T12:05:13.130Z,1019.69